createdAt,value
2022-10-25T00:02:21.627Z,101077.59
2022-10-25T00:04:48.493Z,101067.47
2022-10-25T00:07:15.855Z,101072.53
2022-10-25T00:09:42.684Z,101059.94
2022-10-25T00:12:09.589Z,101060.56
2022-10-25T00:14:36.463Z,101057.44
2022-10-25T00:17:03.320Z,101063.94
2022-10-25T00:19:30.259Z,101058.75
2022-10-25T00:21:57.093Z,101059.59
2022-10-25T00:24:23.989Z,101046.84
2022-10-25T00:26:51.011Z,101049.63
2022-10-25T00:29:18.054Z,101045.03
2022-10-25T00:31:45.115Z,101054.28
2022-10-25T00:34:12.034Z,101043.13
2022-10-25T00:36:38.887Z,101038.84
2022-10-25T00:39:05.745Z,101045.22
2022-10-25T00:41:34.599Z,101035.31
2022-10-25T00:44:38.896Z,101042.34
2022-10-25T00:47:42.744Z,101043.16
2022-10-25T00:50:21.912Z,101034.84
2022-10-25T00:52:52.042Z,101033.38
2022-10-25T00:55:22.302Z,101034.91
2022-10-25T00:57:56.840Z,101028.00
2022-10-25T01:00:23.764Z,101037.84
2022-10-25T01:02:51.260Z,101030.22
2022-10-25T01:05:18.617Z,101030.94
2022-10-25T01:07:45.970Z,101030.28
2022-10-25T01:10:13.140Z,101031.66
2022-10-25T01:12:40.184Z,101026.59
2022-10-25T01:15:07.664Z,101025.81
2022-10-25T01:18:15.888Z,101031.69
2022-10-25T01:20:54.987Z,101019.16
2022-10-25T01:23:36.714Z,101016.88
2022-10-25T01:26:18.716Z,101016.72
2022-10-25T01:28:48.670Z,101011.19
2022-10-25T01:31:33.175Z,101014.44
2022-10-25T01:34:08.997Z,101011.66
2022-10-25T01:37:10.909Z,101015.56
2022-10-25T01:40:06.849Z,101006.78
2022-10-25T01:42:44.166Z,101007.59
2022-10-25T01:45:20.322Z,101017.72
2022-10-25T01:47:58.922Z,101017.41
2022-10-25T01:50:32.710Z,101022.59
2022-10-25T01:52:59.585Z,101020.16
2022-10-25T01:55:48.154Z,101020.81
2022-10-25T01:58:30.266Z,101017.38
2022-10-25T02:01:08.601Z,101004.81
2022-10-25T02:03:41.143Z,101004.19
2022-10-25T02:06:52.212Z,101004.97
2022-10-25T02:09:36.825Z,100996.97
2022-10-25T02:12:04.784Z,101000.41
2022-10-25T02:14:40.546Z,100996.78
2022-10-25T02:17:24.657Z,101008.78
2022-10-25T02:19:56.773Z,101000.63
2022-10-25T02:22:29.592Z,101001.25
2022-10-25T02:24:57.430Z,100996.69
2022-10-25T02:27:25.181Z,101005.09
2022-10-25T02:29:53.797Z,100997.66
2022-10-25T02:32:21.149Z,100993.72
2022-10-25T02:34:49.348Z,100998.94
2022-10-25T02:37:17.820Z,100987.88
2022-10-25T02:39:46.068Z,100992.25
2022-10-25T02:42:12.828Z,100991.75
2022-10-25T02:44:39.681Z,100984.16
2022-10-25T02:47:06.555Z,100981.56
2022-10-25T02:49:33.515Z,100993.91
2022-10-25T02:52:00.352Z,100986.75
2022-10-25T02:54:27.200Z,100989.16
2022-10-25T02:56:54.217Z,100993.56
2022-10-25T02:59:21.459Z,101000.22
2022-10-25T03:01:48.975Z,100992.44
2022-10-25T03:04:15.884Z,100994.38
2022-10-25T03:25:05.717Z,100985.81
2022-10-25T03:27:32.596Z,100980.41
2022-10-25T03:29:59.378Z,100993.53
2022-10-25T03:32:26.192Z,100981.22
2022-10-25T03:34:53.005Z,100969.41
2022-10-25T03:37:19.924Z,100972.06
2022-10-25T03:39:46.747Z,100971.28
2022-10-25T03:42:13.568Z,100967.03
2022-10-25T03:44:40.548Z,100970.16
2022-10-25T03:47:07.555Z,100959.44
2022-10-25T03:49:34.340Z,100961.69
2022-10-25T03:52:02.794Z,100959.13
2022-10-25T03:54:31.905Z,100959.44
2022-10-25T03:56:58.773Z,100953.72
2022-10-25T03:59:25.788Z,100958.31
2022-10-25T04:01:52.712Z,100953.38
2022-10-25T04:04:19.697Z,100951.44
2022-10-25T04:06:46.834Z,100956.63
2022-10-25T04:09:13.713Z,100951.91
2022-10-25T04:11:40.497Z,100958.59
2022-10-25T04:14:07.389Z,100950.25
2022-10-25T04:16:34.185Z,100948.44
2022-10-25T04:19:01.042Z,100951.06
2022-10-25T04:21:28.086Z,100949.13
2022-10-25T04:23:55.033Z,100956.13
2022-10-25T04:26:22.517Z,100951.09
2022-10-25T04:28:53.831Z,100950.63
2022-10-25T04:31:21.795Z,100948.38
2022-10-25T04:33:53.061Z,100947.53
2022-10-25T04:36:20.750Z,100946.38
2022-10-25T04:38:51.757Z,100939.91
2022-10-25T04:41:19.621Z,100943.97
2022-10-25T04:43:47.273Z,100934.03
2022-10-25T04:46:15.130Z,100935.34
2022-10-25T04:48:42.918Z,100946.78
2022-10-25T04:51:11.733Z,100942.22
2022-10-25T04:53:38.741Z,100941.13
2022-10-25T04:56:08.406Z,100930.88
2022-10-25T04:58:35.779Z,100945.88
2022-10-25T05:01:07.989Z,100946.88
2022-10-25T05:03:35.170Z,100946.06
2022-10-25T05:06:14.810Z,100951.22
2022-10-25T05:08:44.566Z,100946.97
2022-10-25T05:11:13.315Z,100952.75
2022-10-25T05:13:41.981Z,100951.38
2022-10-25T05:16:12.561Z,100956.78
2022-10-25T05:18:39.405Z,100962.31
2022-10-25T05:21:06.969Z,100962.41
2022-10-25T05:23:34.974Z,100950.00
2022-10-25T05:26:03.055Z,100957.63
2022-10-25T05:28:29.942Z,100954.94
2022-10-25T05:30:56.923Z,100949.63
2022-10-25T05:33:23.843Z,100959.56
2022-10-25T05:35:50.681Z,100956.47
2022-10-25T05:38:17.564Z,100961.94
2022-10-25T05:40:44.416Z,100971.38
2022-10-25T05:43:11.206Z,100968.56
2022-10-25T05:45:38.028Z,100971.19
2022-10-25T05:48:04.881Z,100964.84
2022-10-25T05:50:31.744Z,100981.03
2022-10-25T05:52:58.605Z,100975.06
2022-10-25T05:55:25.495Z,100979.38
2022-10-25T05:57:52.380Z,100976.06
2022-10-25T06:00:19.317Z,100984.78
2022-10-25T06:02:46.336Z,100986.44
2022-10-25T06:05:13.675Z,100984.78
2022-10-25T06:07:40.466Z,100986.28
2022-10-25T06:10:10.604Z,100979.59
2022-10-25T06:12:37.729Z,100979.59
2022-10-25T06:15:04.964Z,100983.81
2022-10-25T06:17:31.822Z,100978.31
2022-10-25T06:19:58.671Z,100983.88
2022-10-25T06:22:25.453Z,100980.47
2022-10-25T06:24:52.345Z,100976.72
2022-10-25T06:27:19.410Z,100982.59
2022-10-25T06:29:46.288Z,100986.72
2022-10-25T06:32:13.224Z,100981.59
2022-10-25T06:34:40.048Z,100967.63
2022-10-25T06:37:06.866Z,100971.78
2022-10-25T06:39:33.661Z,100971.38
2022-10-25T06:42:00.526Z,100970.88
2022-10-25T06:44:27.449Z,100972.06
2022-10-25T06:49:41.300Z,100974.72
2022-10-25T06:52:08.272Z,100962.28
2022-10-25T06:54:35.943Z,100957.47
2022-10-25T06:57:02.813Z,100963.50
2022-10-25T06:59:29.742Z,100958.94
2022-10-25T07:01:57.535Z,100961.94
2022-10-25T07:04:24.541Z,100961.25
2022-10-25T07:06:54.426Z,100958.16
2022-10-25T07:09:22.500Z,100952.97
2022-10-25T07:11:49.446Z,100955.91
2022-10-25T07:14:16.270Z,100954.66
2022-10-25T07:16:43.200Z,100951.19
2022-10-25T07:19:10.729Z,100955.06
2022-10-25T07:21:37.615Z,100950.44
2022-10-25T07:24:04.554Z,100957.78
2022-10-25T07:26:34.619Z,100960.41
2022-10-25T07:29:03.865Z,100958.31
2022-10-25T07:31:33.985Z,100953.84
2022-10-25T07:34:02.670Z,100949.66
2022-10-25T07:36:29.897Z,100945.47
2022-10-25T07:38:57.499Z,100943.53
2022-10-25T07:41:25.597Z,100954.28
2022-10-25T07:43:52.475Z,100937.81
2022-10-25T07:46:19.313Z,100940.69
2022-10-25T07:48:46.198Z,100949.47
2022-10-25T07:51:15.461Z,100950.84
2022-10-25T07:53:42.626Z,100950.63
2022-10-25T07:56:20.678Z,100947.53
2022-10-25T07:58:52.325Z,100943.28
2022-10-25T08:01:22.450Z,100940.69
2022-10-25T08:03:50.099Z,100943.00
2022-10-25T08:06:17.055Z,100939.06
2022-10-25T08:08:44.032Z,100938.00
2022-10-25T08:11:10.835Z,100939.50
2022-10-25T08:13:38.892Z,100940.88
2022-10-25T08:16:06.780Z,100929.31
2022-10-25T08:18:34.475Z,100930.84
2022-10-25T08:21:03.607Z,100923.13
2022-10-25T08:23:31.853Z,100926.00
2022-10-25T08:25:59.470Z,100922.13
2022-10-25T08:28:26.457Z,100919.59
2022-10-25T08:30:55.436Z,100922.59
2022-10-25T08:33:22.593Z,100912.63
2022-10-25T08:35:49.519Z,100914.72
2022-10-25T08:38:16.339Z,100922.13
2022-10-25T08:40:49.293Z,100906.25
2022-10-25T08:43:37.673Z,100911.38
2022-10-25T08:46:10.709Z,100902.22
2022-10-25T08:48:43.290Z,100906.38
2022-10-25T08:51:24.837Z,100891.91
2022-10-25T08:56:28.511Z,100881.63
2022-10-25T08:59:00.234Z,100891.88
2022-10-25T09:01:44.989Z,100889.75
2022-10-25T09:04:12.015Z,100891.63
2022-10-25T09:06:47.958Z,100889.94
2022-10-25T09:09:45.132Z,100885.81
2022-10-25T09:12:11.966Z,100886.03
2022-10-25T09:15:01.696Z,100886.16
2022-10-25T09:17:44.816Z,100881.78
2022-10-25T09:20:21.112Z,100879.97
2022-10-25T09:22:51.593Z,100874.56
2022-10-25T09:25:30.269Z,100876.47
2022-10-25T09:28:04.038Z,100883.53
2022-10-25T09:30:37.802Z,100872.97
2022-10-25T09:33:12.809Z,100871.53
2022-10-25T09:35:39.627Z,100873.84
2022-10-25T09:38:33.878Z,100873.63
2022-10-25T09:41:04.524Z,100862.25
2022-10-25T09:43:39.622Z,100864.50
2022-10-25T09:46:14.150Z,100863.22
2022-10-25T09:48:50.151Z,100862.13
2022-10-25T09:51:30.876Z,100859.72
2022-10-25T09:53:59.751Z,100855.59
2022-10-25T09:56:26.661Z,100852.72
2022-10-25T09:58:53.723Z,100855.44
2022-10-25T10:01:25.900Z,100851.59
2022-10-25T10:03:55.822Z,100851.44
2022-10-25T10:06:34.513Z,100845.84
2022-10-25T10:09:05.895Z,100838.97
2022-10-25T10:11:35.237Z,100835.44
2022-10-25T10:14:11.586Z,100836.06
2022-10-25T10:16:48.943Z,100839.84
2022-10-25T10:19:24.158Z,100824.13
2022-10-25T10:21:57.420Z,100830.50
2022-10-25T10:24:37.470Z,100826.47
2022-10-25T10:27:24.562Z,100821.97
2022-10-25T10:29:55.448Z,100817.34
2022-10-25T10:32:27.144Z,100818.91
2022-10-25T10:34:57.496Z,100811.03
2022-10-25T10:37:27.041Z,100816.94
2022-10-25T10:39:58.208Z,100805.13
2022-10-25T10:42:34.953Z,100794.28
2022-10-25T10:45:09.822Z,100804.44
2022-10-25T10:47:48.837Z,100799.84
2022-10-25T10:50:25.602Z,100799.81
2022-10-25T10:53:21.719Z,100794.03
2022-10-25T10:55:52.493Z,100785.84
2022-10-25T10:58:25.767Z,100786.19
2022-10-25T11:00:54.074Z,100789.72
2022-10-25T11:03:49.203Z,100790.06
2022-10-25T11:06:34.445Z,100783.09
2022-10-25T11:09:25.558Z,100785.59
2022-10-25T11:12:18.951Z,100780.50
2022-10-25T11:14:45.949Z,100776.50
2022-10-25T11:17:18.069Z,100776.50
2022-10-25T11:20:09.425Z,100765.66
2022-10-25T11:25:20.933Z,100767.91
2022-10-25T11:27:53.497Z,100761.75
2022-10-25T11:30:22.925Z,100767.53
2022-10-25T11:33:21.664Z,100754.72
2022-10-25T11:36:21.373Z,100755.19
2022-10-25T11:39:14.589Z,100749.97
2022-10-25T11:41:45.341Z,100750.19
2022-10-25T11:44:49.893Z,100748.47
2022-10-25T11:47:31.454Z,100734.34
2022-10-25T11:50:22.532Z,100742.28
2022-10-25T11:52:54.477Z,100740.84
2022-10-25T11:55:48.312Z,100738.00
2022-10-25T11:58:24.004Z,100739.06
2022-10-25T12:01:24.288Z,100736.84
2022-10-25T12:04:18.785Z,100744.25
2022-10-25T12:06:58.401Z,100746.09
2022-10-25T12:09:31.211Z,100743.47
2022-10-25T12:12:26.630Z,100739.63
2022-10-25T12:14:58.809Z,100732.81
2022-10-25T12:17:34.598Z,100735.75
2022-10-25T12:20:05.607Z,100742.59
2022-10-25T12:22:40.258Z,100739.34
2022-10-25T12:25:29.316Z,100741.28
2022-10-25T12:28:09.946Z,100738.00
2022-10-25T12:30:37.978Z,100727.59
2022-10-25T12:33:19.526Z,100724.69
2022-10-25T12:35:54.216Z,100736.31
2022-10-25T12:38:31.367Z,100726.13
2022-10-25T12:41:04.702Z,100732.94
2022-10-25T12:43:34.503Z,100721.16
2022-10-25T12:46:13.423Z,100721.59
2022-10-25T12:49:13.562Z,100724.66
2022-10-25T12:51:59.237Z,100719.38
2022-10-25T12:55:20.867Z,100722.44
2022-10-25T12:58:17.440Z,100716.78
2022-10-25T13:01:01.058Z,100716.00
2022-10-25T13:03:33.861Z,100712.09
2022-10-25T13:06:16.010Z,100712.50
2022-10-25T13:08:44.223Z,100719.66
2022-10-25T13:11:11.502Z,100714.38
2022-10-25T13:13:48.309Z,100718.00
2022-10-25T13:16:30.857Z,100714.38
2022-10-25T13:19:53.149Z,100725.47
2022-10-25T13:22:37.997Z,100726.22
2022-10-25T13:25:08.815Z,100718.31
2022-10-25T13:27:36.553Z,100715.44
2022-10-25T13:30:06.590Z,100715.44
2022-10-25T13:32:35.891Z,100713.28
2022-10-25T13:35:23.497Z,100706.56
2022-10-25T13:37:53.942Z,100715.00
2022-10-25T13:40:26.770Z,100714.66
2022-10-25T13:43:18.315Z,100703.75
2022-10-25T13:45:47.602Z,100706.94
2022-10-25T13:48:14.372Z,100700.38
2022-10-25T13:50:44.879Z,100695.91
2022-10-25T13:53:34.328Z,100698.72
2022-10-25T13:56:32.754Z,100702.63
2022-10-25T13:59:02.101Z,100709.25
2022-10-25T14:01:31.182Z,100694.13
2022-10-25T14:04:19.905Z,100700.66
2022-10-25T14:06:47.061Z,100702.84
2022-10-25T14:09:25.583Z,100706.28
2022-10-25T14:12:19.399Z,100687.78
2022-10-25T14:15:09.185Z,100683.38
2022-10-25T14:17:40.728Z,100688.97
2022-10-25T14:20:09.305Z,100688.88
2022-10-25T14:22:40.331Z,100686.25
2022-10-25T14:25:34.004Z,100689.47
2022-10-25T14:28:12.332Z,100685.06
2022-10-25T14:30:44.029Z,100689.66
2022-10-25T14:33:23.412Z,100690.03
2022-10-25T14:36:17.899Z,100690.31
2022-10-25T14:38:55.214Z,100689.78
2022-10-25T14:41:28.034Z,100687.63
2022-10-25T14:43:55.249Z,100684.88
2022-10-25T14:46:24.532Z,100684.00
2022-10-25T14:48:59.310Z,100683.59
2022-10-25T14:51:34.144Z,100687.81
2022-10-25T14:54:06.977Z,100688.91
2022-10-25T14:56:38.864Z,100683.25
2022-10-25T14:59:16.431Z,100682.25
2022-10-25T15:01:59.632Z,100694.38
2022-10-25T15:04:30.326Z,100691.94
2022-10-25T15:06:57.638Z,100691.94
2022-10-25T15:27:40.258Z,100688.72
2022-10-25T15:30:27.401Z,100684.56
2022-10-25T15:32:54.238Z,100690.34
2022-10-25T15:35:25.495Z,100694.84
2022-10-25T15:37:52.750Z,100697.06
2022-10-25T15:40:20.035Z,100700.78
2022-10-25T15:42:47.034Z,100690.53
2022-10-25T15:45:14.527Z,100695.63
2022-10-25T15:47:42.680Z,100688.69
2022-10-25T15:50:19.460Z,100691.47
2022-10-25T15:52:46.621Z,100695.13
2022-10-25T15:55:26.990Z,100691.59
2022-10-25T15:57:55.173Z,100687.69
2022-10-25T16:00:27.930Z,100689.72
2022-10-25T16:02:56.267Z,100694.63
2022-10-25T16:05:26.173Z,100684.94
2022-10-25T16:07:53.656Z,100695.38
2022-10-25T16:10:22.837Z,100694.25
2022-10-25T16:13:10.066Z,100689.09
2022-10-25T16:15:37.112Z,100694.25
2022-10-25T16:18:04.174Z,100686.94
2022-10-25T16:20:32.210Z,100703.44
2022-10-25T16:22:58.996Z,100699.91
2022-10-25T16:25:30.460Z,100699.59
2022-10-25T16:28:00.579Z,100699.41
2022-10-25T16:30:32.186Z,100695.84
2022-10-25T16:32:59.982Z,100698.03
2022-10-25T16:35:26.831Z,100700.84
2022-10-25T16:37:54.113Z,100704.31
2022-10-25T16:40:22.054Z,100703.13
2022-10-25T16:42:49.937Z,100706.28
2022-10-25T16:45:19.443Z,100704.31
2022-10-25T16:47:46.602Z,100704.03
2022-10-25T16:50:14.981Z,100710.69
2022-10-25T16:52:42.282Z,100705.13
2022-10-25T16:55:10.242Z,100703.13
2022-10-25T16:57:37.213Z,100704.66
2022-10-25T17:00:04.686Z,100698.25
2022-10-25T17:02:31.724Z,100702.16
2022-10-25T17:04:58.665Z,100695.78
2022-10-25T17:07:25.554Z,100692.09
2022-10-25T17:09:52.379Z,100693.03
2022-10-25T17:12:19.277Z,100711.03
2022-10-25T17:14:46.066Z,100703.06
2022-10-25T17:17:13.040Z,100706.38
2022-10-25T17:19:39.925Z,100715.63
2022-10-25T17:22:07.156Z,100707.13
2022-10-25T17:24:37.539Z,100695.50
2022-10-25T17:29:37.725Z,100706.94
2022-10-25T17:32:04.649Z,100701.91
2022-10-25T17:34:32.224Z,100693.25
2022-10-25T17:37:00.283Z,100694.97
2022-10-25T17:39:27.193Z,100693.53
2022-10-25T17:41:53.985Z,100690.91
2022-10-25T17:44:20.793Z,100689.94
2022-10-25T17:46:48.386Z,100681.22
2022-10-25T17:49:15.342Z,100687.94
2022-10-25T17:51:43.936Z,100681.31
2022-10-25T17:54:10.900Z,100679.97
2022-10-25T17:56:37.897Z,100668.00
2022-10-25T17:59:07.792Z,100671.69
2022-10-25T18:01:35.490Z,100676.38
2022-10-25T18:04:02.781Z,100670.97
2022-10-25T18:06:31.028Z,100665.84
2022-10-25T18:08:59.191Z,100669.72
2022-10-25T18:11:28.494Z,100660.06
2022-10-25T18:13:58.435Z,100666.91
2022-10-25T18:16:27.180Z,100669.44
2022-10-25T18:18:56.760Z,100666.66
2022-10-25T18:21:24.542Z,100672.50
2022-10-25T18:23:55.786Z,100663.47
2022-10-25T18:26:22.920Z,100659.94
2022-10-25T18:28:50.219Z,100671.63
2022-10-25T18:31:17.474Z,100668.13
2022-10-25T18:33:44.309Z,100667.00
2022-10-25T18:36:19.581Z,100671.84
2022-10-25T18:38:51.089Z,100665.63
2022-10-25T18:41:24.760Z,100666.22
2022-10-25T18:43:51.768Z,100666.75
2022-10-25T18:46:18.958Z,100676.81
2022-10-25T18:48:52.554Z,100675.84
2022-10-25T18:51:21.410Z,100677.56
2022-10-25T18:53:48.405Z,100673.69
2022-10-25T18:56:19.600Z,100666.97
2022-10-25T18:58:49.341Z,100670.69
2022-10-25T19:01:20.885Z,100668.38
2022-10-25T19:03:47.880Z,100668.38
2022-10-25T19:06:14.678Z,100673.16
2022-10-25T19:08:42.574Z,100671.25
2022-10-25T19:11:13.856Z,100674.34
2022-10-25T19:13:40.935Z,100681.72
2022-10-25T19:16:09.191Z,100674.97
2022-10-25T19:18:37.540Z,100677.91
2022-10-25T19:21:09.439Z,100675.53
2022-10-25T19:23:37.172Z,100671.09
2022-10-25T19:26:10.424Z,100684.75
2022-10-25T19:28:37.311Z,100679.97
2022-10-25T19:31:10.584Z,100679.16
2022-10-25T19:33:37.645Z,100674.47
2022-10-25T19:36:13.125Z,100670.78
2022-10-25T19:38:40.425Z,100674.13
2022-10-25T19:41:09.981Z,100676.25
2022-10-25T19:43:37.018Z,100679.41
2022-10-25T19:46:06.197Z,100682.38
2022-10-25T19:48:34.132Z,100674.72
2022-10-25T19:51:11.536Z,100681.91
2022-10-25T19:53:38.921Z,100697.06
2022-10-25T19:56:12.690Z,100696.47
2022-10-25T19:58:39.960Z,100691.63
2022-10-25T20:01:13.249Z,100685.97
2022-10-25T20:03:40.972Z,100695.44
2022-10-25T20:06:11.206Z,100686.69
2022-10-25T20:08:40.057Z,100690.91
2022-10-25T20:11:08.825Z,100688.72
2022-10-25T20:13:35.660Z,100684.16
2022-10-25T20:16:02.570Z,100689.41
2022-10-25T20:18:33.814Z,100693.44
2022-10-25T20:21:04.079Z,100703.03
2022-10-25T20:23:31.505Z,100696.69
2022-10-25T20:25:58.500Z,100702.47
2022-10-25T20:28:25.431Z,100704.97
2022-10-25T20:30:52.381Z,100711.22
2022-10-25T20:33:21.204Z,100708.28
2022-10-25T20:35:48.042Z,100704.19
2022-10-25T20:38:14.936Z,100711.09
2022-10-25T20:40:41.796Z,100706.84
2022-10-25T20:43:08.651Z,100712.09
2022-10-25T20:45:35.497Z,100700.56
2022-10-25T20:48:02.553Z,100694.28
2022-10-25T20:50:31.407Z,100710.44
2022-10-25T20:53:09.837Z,100707.53
2022-10-25T20:55:37.917Z,100701.72
2022-10-25T20:58:05.426Z,100710.56
2022-10-25T21:00:32.999Z,100708.81
2022-10-25T21:03:00.138Z,100705.22
2022-10-25T21:05:27.354Z,100711.44
2022-10-25T21:07:54.272Z,100708.53
2022-10-25T21:10:21.107Z,100714.03
2022-10-25T21:12:47.967Z,100709.75
2022-10-25T21:15:14.928Z,100711.00
2022-10-25T21:17:41.873Z,100708.56
2022-10-25T21:20:09.176Z,100710.13
2022-10-25T21:22:36.024Z,100714.44
2022-10-25T21:25:02.924Z,100714.84
2022-10-25T21:27:29.860Z,100719.88
2022-10-25T21:29:56.809Z,100720.69
2022-10-25T21:32:23.682Z,100723.09
2022-10-25T21:34:50.407Z,100725.13
2022-10-25T21:37:17.331Z,100729.00
2022-10-25T21:39:45.884Z,100726.84
2022-10-25T21:42:12.749Z,100721.34
2022-10-25T21:44:39.733Z,100722.22
2022-10-25T21:47:06.711Z,100720.16
2022-10-25T21:49:33.654Z,100732.88
2022-10-25T21:52:00.543Z,100723.44
2022-10-25T21:54:28.177Z,100728.41
2022-10-25T21:56:55.410Z,100729.88
2022-10-25T21:59:22.810Z,100730.88
2022-10-25T22:01:50.604Z,100739.03
2022-10-25T22:04:17.571Z,100737.44
2022-10-25T22:06:44.462Z,100733.63
2022-10-25T22:09:11.334Z,100730.59
2022-10-25T22:11:39.128Z,100732.94
2022-10-25T22:14:09.454Z,100724.94
2022-10-25T22:16:36.888Z,100730.03
2022-10-25T22:21:55.871Z,100721.88
2022-10-25T22:24:22.806Z,100728.25
2022-10-25T22:26:50.957Z,100726.09
2022-10-25T22:29:17.860Z,100720.78
2022-10-25T22:31:44.831Z,100717.63
2022-10-25T22:34:11.708Z,100721.41
2022-10-25T22:36:40.313Z,100733.84
2022-10-25T22:39:08.092Z,100736.97
2022-10-25T22:41:35.688Z,100745.69
2022-10-25T22:44:02.908Z,100738.75
2022-10-25T22:46:33.212Z,100750.84
2022-10-25T22:49:05.638Z,100739.69
2022-10-25T22:51:32.995Z,100750.34
2022-10-25T22:54:00.154Z,100749.50
2022-10-25T22:56:28.696Z,100755.88
2022-10-25T22:58:57.810Z,100770.09
2022-10-25T23:01:27.195Z,100771.25
2022-10-25T23:03:56.495Z,100773.97
2022-10-25T23:06:26.812Z,100778.97
2022-10-25T23:08:55.760Z,100783.75
2022-10-25T23:11:31.201Z,100787.81
2022-10-25T23:14:05.417Z,100791.41
2022-10-25T23:16:32.481Z,100796.81
2022-10-25T23:18:59.429Z,100792.66
2022-10-25T23:21:30.183Z,100800.50
2022-10-25T23:23:58.915Z,100806.25
2022-10-25T23:26:36.628Z,100813.44
2022-10-25T23:29:04.664Z,100817.84
2022-10-25T23:31:32.035Z,100805.78
2022-10-25T23:34:00.528Z,100817.97
2022-10-25T23:36:29.961Z,100819.63
2022-10-25T23:38:57.932Z,100824.38
2022-10-25T23:41:24.793Z,100832.75
2022-10-25T23:43:51.772Z,100824.50
2022-10-25T23:46:18.883Z,100827.75
2022-10-25T23:48:46.015Z,100832.38
2022-10-25T23:51:15.257Z,100838.22
2022-10-25T23:53:42.869Z,100841.09
2022-10-25T23:56:13.088Z,100840.75
2022-10-25T23:58:40.020Z,100843.66
